Aérodrome :
LOGIN :

S'inscrire | Disclaimer

   EN    FR    IT 

 










Légende :    VFR   VFR Marginal   IFR   IFR Intensif   IFR Très Intensif
Visi : 
Plafond : 
>= 8 km
>= 3000ft
5 à 8 km
1000 à 3000 ft
1500m à 5 km
500 à 1000 ft
800 à 1500m
200 à 500 ft
< 800m
< 200 ft
Symboles :   Orages  Brouillard  Fortes neiges  Fortes précipitations  Vent > 20 kt
SIGMETs :   Divers  Orages  Givrage  Turbulence  Onde Orograph.  Cendres Volcan.






- Altitude de l'aérodrome : 23 ft
- Code IATA : XFW


EDHI - Hamburg Finkenwerder

DERNIER METAR :
  • 282150Z AUTO 13003KT 7000 // BKN053/// 04/02 Q1019

METARs EXPIRÉS :
  • 282120Z AUTO 14003KT 8000 // BKN054/// 04/03 Q1020
  • 282050Z AUTO 13003KT 9999 // FEW016/// 04/02 Q1020
  • 282020Z AUTO 15005KT 110V170 9999 // BKN016/// 05/03 Q1020
  • 281950Z AUTO 16004KT 130V190 9000 // OVC018/// 05/04 Q1020
  • 281920Z AUTO 16004KT 8000 // FEW012/// OVC020/// 05/04 Q1020
  • 281850Z AUTO 19004KT 160V220 8000 // BKN011/// OVC025/// 05/04 Q1020
  • 281820Z 19005KT 150V220 9000 BKN012 06/04 Q1020
  • 281750Z 19005KT 8000 BKN012 06/04 Q1020
  • 281720Z 20005KT 8000 FEW012 BKN022 06/04 Q1020
  • 281650Z 21006KT 9000 FEW011 BKN021 06/04 Q1020

Prévision TAF périmée.



MET'MAP, la Météo Aéronautique d'un coup d'oeil ! - Copyright ORBIFLY Décembre 2007 - Disclaimer

ORBIFLY MET'MAP TEAM :

Programmation & Développement : Alexandra Zaïnal
Sur une idée originale de : Baudouin d'Aumeries
Soutien technique & logistique : Manuel Goepfert
Assistance : Marc-Olivier Méhu




SOURCES & CREDITS :

   NOAA